Time;durP1;ratioP1;P1;durP2;ratioP2;P2;SDS_P1;SDS_P2;PMS_P1;PMS_P2;Temp;Humidity;BMP_temperature;BMP_pressure;BME280_temperature;BME280_humidity;BME280_pressure;Samples;Min_cycle;Max_cycle;Signal;HPM_P1;HPM_P2
2021/04/07 00:00:41;;;;;;;7.85;4.07;;;3.80;99.90;;;;;;2569320;23;20112;-67
2021/04/07 00:01:42;;;;;;;8.80;4.03;;;3.80;99.90;;;;;;2569894;23;19996;-67
2021/04/07 00:02:43;;;;;;;8.73;4.30;;;3.80;99.90;;;;;;2567542;23;20062;-67
2021/04/07 00:03:43;;;;;;;10.57;4.95;;;3.80;99.90;;;;;;2568217;23;20032;-67
2021/04/07 00:05:15;;;;;;;6.30;3.83;;;3.80;99.90;;;;;;2569451;23;20008;-67
2021/04/07 00:06:16;;;;;;;7.35;4.13;;;3.80;99.90;;;;;;2547360;23;20077;-67
2021/04/07 00:07:16;;;;;;;8.93;4.28;;;3.80;99.90;;;;;;2569489;23;20024;-68
2021/04/07 00:08:25;;;;;;;8.15;4.57;;;3.80;99.90;;;;;;2569125;23;20693;-67
2021/04/07 00:09:26;;;;;;;8.48;4.45;;;3.80;99.90;;;;;;2569152;23;20004;-67
2021/04/07 00:10:32;;;;;;;8.60;4.40;;;3.80;99.90;;;;;;2569341;23;20005;-67
2021/04/07 00:11:33;;;;;;;11.88;5.03;;;3.90;99.90;;;;;;2568991;23;20007;-67
2021/04/07 00:12:34;;;;;;;15.50;4.22;;;3.90;99.90;;;;;;2568829;23;20012;-67
2021/04/07 00:13:34;;;;;;;11.05;4.15;;;3.90;99.90;;;;;;2569234;23;20003;-67
2021/04/07 00:14:35;;;;;;;18.40;4.50;;;3.90;99.90;;;;;;2569461;23;20001;-67
2021/04/07 00:15:36;;;;;;;9.18;4.10;;;3.80;99.90;;;;;;2569681;23;20028;-67
2021/04/07 00:16:37;;;;;;;12.63;4.63;;;3.80;99.90;;;;;;2569181;23;20413;-67
2021/04/07 00:17:37;;;;;;;10.95;4.63;;;3.80;99.90;;;;;;2569132;23;20425;-67
2021/04/07 00:18:38;;;;;;;8.57;5.03;;;3.90;99.90;;;;;;2569202;23;20059;-67
2021/04/07 00:19:38;;;;;;;11.48;5.15;;;3.80;99.90;;;;;;2569085;23;20012;-67
2021/04/07 00:20:39;;;;;;;11.80;5.15;;;3.90;99.90;;;;;;2569374;23;20008;-67
2021/04/07 00:21:39;;;;;;;6.68;4.07;;;3.80;99.90;;;;;;2569190;23;20004;-67
2021/04/07 00:22:40;;;;;;;11.40;5.38;;;3.80;99.90;;;;;;2568802;23;20455;-68
2021/04/07 00:23:41;;;;;;;12.15;4.78;;;3.80;99.90;;;;;;2568267;23;19997;-67
2021/04/07 00:24:41;;;;;;;10.02;4.72;;;3.80;99.90;;;;;;2568490;23;19997;-67
2021/04/07 00:25:42;;;;;;;13.43;5.53;;;3.80;99.90;;;;;;2569393;23;19997;-67
2021/04/07 00:26:42;;;;;;;13.13;5.22;;;3.80;99.90;;;;;;2569565;23;20414;-67
2021/04/07 00:27:45;;;;;;;8.65;4.97;;;3.80;99.90;;;;;;2569134;23;20004;-67
2021/04/07 00:28:45;;;;;;;15.52;6.05;;;3.80;99.90;;;;;;2569300;23;20275;-67
2021/04/07 00:29:46;;;;;;;13.52;5.45;;;3.80;99.90;;;;;;2568954;23;20084;-67
2021/04/07 00:30:47;;;;;;;14.65;5.38;;;3.80;99.90;;;;;;2567770;23;20062;-67
2021/04/07 00:31:48;;;;;;;13.02;5.25;;;3.80;99.90;;;;;;2567985;23;20008;-67
2021/04/07 00:32:49;;;;;;;9.35;4.95;;;3.90;99.90;;;;;;2568505;23;19997;-67
2021/04/07 00:33:49;;;;;;;10.50;5.93;;;3.90;99.90;;;;;;2569571;23;20290;-67
2021/04/07 00:34:50;;;;;;;14.25;6.25;;;3.80;99.90;;;;;;2569185;23;20000;-67
2021/04/07 00:35:50;;;;;;;11.30;5.75;;;3.90;99.90;;;;;;2569188;23;20417;-67
2021/04/07 00:36:51;;;;;;;13.63;6.18;;;3.90;99.90;;;;;;2569680;23;20313;-67
2021/04/07 00:37:52;;;;;;;10.35;5.45;;;3.90;99.90;;;;;;2569532;23;20063;-67
2021/04/07 00:38:52;;;;;;;13.43;6.13;;;3.90;99.90;;;;;;2568994;23;20522;-67
2021/04/07 00:39:53;;;;;;;18.42;6.10;;;3.90;99.90;;;;;;2569221;23;20015;-67
2021/04/07 00:40:54;;;;;;;14.23;6.65;;;3.90;99.90;;;;;;2568939;23;20080;-67
2021/04/07 00:42:02;;;;;;;10.73;5.85;;;3.90;99.90;;;;;;2568640;23;20009;-67
2021/04/07 00:43:03;;;;;;;11.55;6.90;;;3.90;99.90;;;;;;2568476;23;20092;-67
2021/04/07 00:44:04;;;;;;;13.88;6.97;;;3.90;99.90;;;;;;2569320;23;20491;-68
2021/04/07 00:45:06;;;;;;;12.50;7.00;;;3.90;99.90;;;;;;2569022;23;20321;-67
2021/04/07 00:46:07;;;;;;;12.95;7.05;;;3.90;99.90;;;;;;2569630;23;20015;-67
2021/04/07 00:47:07;;;;;;;15.38;6.80;;;3.90;99.90;;;;;;2569065;23;20005;-67
2021/04/07 00:48:09;;;;;;;10.30;6.63;;;3.90;99.90;;;;;;2568271;23;20287;-67
2021/04/07 00:49:09;;;;;;;20.35;7.65;;;3.90;99.90;;;;;;2568307;23;20087;-67
2021/04/07 00:50:11;;;;;;;15.48;6.88;;;3.90;99.90;;;;;;2568956;23;20059;-67
2021/04/07 00:51:12;;;;;;;9.57;7.18;;;3.90;99.90;;;;;;2568181;23;20032;-67
2021/04/07 00:52:13;;;;;;;14.63;7.15;;;3.90;99.90;;;;;;2568273;23;20007;-68
2021/04/07 00:53:13;;;;;;;13.02;7.03;;;3.90;99.90;;;;;;2569345;23;20000;-67
2021/04/07 00:54:14;;;;;;;15.52;6.90;;;3.90;99.90;;;;;;2568208;23;20001;-67
2021/04/07 00:55:20;;;;;;;15.38;7.47;;;3.90;99.90;;;;;;2567652;23;20004;-67
2021/04/07 00:56:21;;;;;;;14.70;7.63;;;3.90;99.90;;;;;;2569275;23;20004;-67
2021/04/07 00:57:23;;;;;;;12.88;7.13;;;3.90;99.90;;;;;;2569183;23;20348;-67
2021/04/07 00:58:24;;;;;;;14.50;7.22;;;4.00;99.90;;;;;;2569481;23;20079;-67
2021/04/07 00:59:25;;;;;;;10.10;6.60;;;4.00;99.90;;;;;;2569210;23;20140;-67
2021/04/07 01:00:26;;;;;;;10.80;5.80;;;4.00;99.90;;;;;;2569666;23;20028;-67
2021/04/07 01:01:26;;;;;;;8.40;6.35;;;4.00;99.90;;;;;;2568954;23;20019;-68
2021/04/07 01:02:27;;;;;;;10.80;6.88;;;4.00;99.90;;;;;;2568323;23;19997;-67
2021/04/07 01:03:28;;;;;;;18.23;7.60;;;4.00;99.90;;;;;;2568133;23;20326;-67
2021/04/07 01:04:29;;;;;;;11.95;7.25;;;4.00;99.90;;;;;;2568508;23;20017;-67
2021/04/07 01:05:30;;;;;;;11.80;6.90;;;4.00;99.90;;;;;;2568966;23;20012;-67
2021/04/07 01:06:32;;;;;;;13.32;6.70;;;4.00;99.90;;;;;;2569035;23;20004;-67
2021/04/07 01:07:33;;;;;;;16.90;7.75;;;4.00;99.90;;;;;;2568950;23;20028;-67
2021/04/07 01:08:35;;;;;;;15.18;7.97;;;4.00;99.90;;;;;;2569001;23;20059;-67
2021/04/07 01:09:35;;;;;;;15.10;7.78;;;4.00;99.90;;;;;;2568560;23;20004;-67
2021/04/07 01:10:37;;;;;;;15.57;7.55;;;4.00;99.90;;;;;;2568811;23;20000;-67
2021/04/07 01:11:38;;;;;;;15.55;7.32;;;4.00;99.90;;;;;;2567903;23;20371;-67
2021/04/07 01:12:40;;;;;;;15.75;7.75;;;4.00;99.90;;;;;;2568249;23;20008;-67
2021/04/07 01:13:40;;;;;;;12.93;8.20;;;4.00;99.90;;;;;;2568826;23;20000;-68
2021/04/07 01:14:41;;;;;;;15.55;7.35;;;4.00;99.90;;;;;;2568840;23;20001;-67
2021/04/07 01:15:41;;;;;;;11.57;6.90;;;4.00;99.90;;;;;;2569116;23;20005;-67
2021/04/07 01:16:42;;;;;;;11.65;7.18;;;4.00;99.90;;;;;;2569026;23;20080;-67
2021/04/07 01:17:44;;;;;;;11.55;7.70;;;4.00;99.90;;;;;;2568998;23;20278;-67
2021/04/07 01:18:44;;;;;;;13.38;7.32;;;4.00;99.90;;;;;;2569158;23;20000;-67
2021/04/07 01:19:45;;;;;;;11.45;7.55;;;4.00;99.90;;;;;;2568682;23;20001;-67
2021/04/07 01:20:46;;;;;;;12.55;7.38;;;4.00;99.90;;;;;;2568832;23;20075;-67
2021/04/07 01:21:47;;;;;;;10.82;7.57;;;4.00;99.90;;;;;;2569038;23;20000;-67
2021/04/07 01:22:54;;;;;;;11.65;7.03;;;4.00;99.90;;;;;;2568272;23;20089;-67
2021/04/07 01:23:54;;;;;;;13.25;7.30;;;4.00;99.90;;;;;;2569384;23;20001;-67
2021/04/07 01:24:55;;;;;;;15.77;7.45;;;4.00;99.90;;;;;;2569083;23;19993;-67
2021/04/07 01:25:56;;;;;;;13.60;7.43;;;4.00;99.90;;;;;;2569030;23;20046;-68
2021/04/07 01:26:56;;;;;;;13.98;6.65;;;4.00;99.90;;;;;;2568922;23;20000;-67
2021/04/07 01:27:58;;;;;;;13.40;7.82;;;4.00;99.90;;;;;;2569141;23;20059;-67
2021/04/07 01:29:00;;;;;;;16.02;8.00;;;4.00;99.90;;;;;;2568867;23;20005;-67
2021/04/07 01:30:00;;;;;;;14.20;8.20;;;4.00;99.90;;;;;;2568986;23;20011;-67
2021/04/07 01:31:01;;;;;;;14.05;7.53;;;4.00;99.90;;;;;;2568653;23;20058;-68
2021/04/07 01:32:02;;;;;;;16.10;8.50;;;4.00;99.90;;;;;;2569064;23;20008;-67
2021/04/07 01:33:02;;;;;;;14.38;7.40;;;4.00;99.90;;;;;;2568234;23;20011;-67
2021/04/07 01:34:03;;;;;;;13.90;7.13;;;3.90;99.90;;;;;;2568946;23;20313;-67
2021/04/07 01:35:05;;;;;;;14.50;7.35;;;3.90;99.90;;;;;;2568916;23;20001;-67
2021/04/07 01:36:06;;;;;;;10.35;7.15;;;3.90;99.90;;;;;;2569262;23;20298;-67
2021/04/07 01:37:06;;;;;;;13.82;6.68;;;3.90;99.90;;;;;;2568666;23;20136;-68
2021/04/07 01:38:07;;;;;;;15.93;7.63;;;3.90;99.90;;;;;;2569131;23;20440;-67
2021/04/07 01:39:07;;;;;;;18.27;7.13;;;3.90;99.90;;;;;;2568973;23;20016;-67
2021/04/07 01:40:11;;;;;;;8.85;6.05;;;3.90;99.90;;;;;;2569086;23;20012;-67
2021/04/07 01:41:12;;;;;;;12.10;6.72;;;3.90;99.90;;;;;;2568605;23;20024;-67
2021/04/07 01:42:14;;;;;;;12.43;8.00;;;3.90;99.90;;;;;;2568354;23;20012;-67
2021/04/07 01:43:19;;;;;;;11.32;6.88;;;3.80;99.90;;;;;;2568536;23;20019;-67
2021/04/07 01:44:22;;;;;;;12.40;7.28;;;3.80;99.90;;;;;;2569234;23;20452;-67
2021/04/07 01:45:23;;;;;;;11.27;7.57;;;3.80;99.90;;;;;;2569010;23;20091;-67
2021/04/07 01:46:24;;;;;;;16.33;8.48;;;3.80;99.90;;;;;;2569250;23;20000;-67
2021/04/07 01:47:24;;;;;;;14.23;8.43;;;3.80;99.90;;;;;;2568810;23;20004;-67
2021/04/07 01:48:25;;;;;;;17.55;8.25;;;3.80;99.90;;;;;;2569148;23;20032;-67
2021/04/07 01:49:27;;;;;;;22.73;9.27;;;3.80;99.90;;;;;;2569027;23;20009;-67
2021/04/07 01:50:28;;;;;;;10.85;7.70;;;3.90;99.90;;;;;;2569208;23;20008;-67
2021/04/07 01:51:30;;;;;;;11.98;8.45;;;3.90;99.90;;;;;;2568844;23;20038;-67
2021/04/07 01:52:31;;;;;;;19.15;8.65;;;3.90;99.90;;;;;;2568486;23;20001;-67
2021/04/07 01:53:32;;;;;;;11.77;7.80;;;3.80;99.90;;;;;;2568129;23;20001;-67
2021/04/07 01:54:34;;;;;;;18.80;9.43;;;3.80;99.90;;;;;;2567939;23;20063;-67
2021/04/07 01:55:35;;;;;;;14.10;8.25;;;3.80;99.90;;;;;;2568572;23;20496;-67
2021/04/07 01:56:53;;;;;;;14.60;8.95;;;3.80;99.90;;;;;;2568908;23;20027;-67
2021/04/07 01:57:54;;;;;;;15.73;9.27;;;3.80;99.90;;;;;;2569406;23;20004;-67
2021/04/07 01:59:06;;;;;;;12.60;8.45;;;3.80;99.90;;;;;;2566897;23;20004;-68
2021/04/07 02:00:11;;;;;;;15.02;9.30;;;3.80;99.90;;;;;;2568772;23;20008;-68
2021/04/07 02:01:11;;;;;;;12.60;9.40;;;3.80;99.90;;;;;;2570105;23;20052;-68
2021/04/07 02:02:12;;;;;;;17.85;9.88;;;3.70;99.90;;;;;;2569334;23;20059;-68
2021/04/07 02:03:13;;;;;;;14.95;8.95;;;3.70;99.90;;;;;;2570110;23;20048;-67
2021/04/07 02:04:14;;;;;;;15.55;8.35;;;3.70;99.90;;;;;;2570510;23;20451;-67
2021/04/07 02:05:16;;;;;;;17.83;8.48;;;3.70;99.90;;;;;;2570405;23;20476;-67
2021/04/07 02:06:17;;;;;;;15.55;9.43;;;3.70;99.90;;;;;;2570257;23;20012;-67
2021/04/07 02:07:18;;;;;;;14.13;7.93;;;3.80;99.90;;;;;;2570558;23;20000;-67
2021/04/07 02:08:18;;;;;;;16.10;8.73;;;3.70;99.90;;;;;;2570413;23;20008;-67
2021/04/07 02:09:19;;;;;;;12.85;9.23;;;3.80;99.90;;;;;;2570248;23;19997;-67
2021/04/07 02:10:20;;;;;;;13.88;8.63;;;3.70;99.90;;;;;;2570524;23;20014;-67
2021/04/07 02:11:21;;;;;;;14.82;8.32;;;3.70;99.90;;;;;;2569976;23;20008;-67
2021/04/07 02:12:21;;;;;;;12.43;8.85;;;3.70;99.90;;;;;;2569751;23;20079;-67
2021/04/07 02:13:22;;;;;;;14.90;8.80;;;3.70;99.90;;;;;;2570579;23;20004;-67
2021/04/07 02:14:24;;;;;;;16.13;9.45;;;3.70;99.90;;;;;;2570195;23;20433;-67
2021/04/07 02:15:25;;;;;;;20.27;10.38;;;3.70;99.90;;;;;;2570798;23;20000;-67
2021/04/07 02:16:25;;;;;;;16.63;10.57;;;3.70;99.90;;;;;;2569329;23;20004;-67
2021/04/07 02:17:26;;;;;;;17.50;10.13;;;3.70;99.90;;;;;;2569896;23;20084;-67
2021/04/07 02:18:26;;;;;;;16.73;9.02;;;3.70;99.90;;;;;;2570479;23;20075;-68
2021/04/07 02:19:28;;;;;;;13.90;9.73;;;3.70;99.90;;;;;;2570154;23;20016;-67
2021/04/07 02:20:29;;;;;;;15.63;9.45;;;3.70;99.90;;;;;;2570479;23;20055;-67
2021/04/07 02:21:30;;;;;;;17.63;9.73;;;3.70;99.90;;;;;;2570158;23;20028;-67
2021/04/07 02:22:30;;;;;;;17.02;9.40;;;3.70;99.90;;;;;;2568699;23;20005;-67
2021/04/07 02:23:32;;;;;;;15.70;9.75;;;3.70;99.90;;;;;;2569700;23;20004;-67
2021/04/07 02:24:34;;;;;;;17.95;9.38;;;3.70;99.90;;;;;;2570191;23;20016;-67
2021/04/07 02:25:34;;;;;;;20.08;11.90;;;3.70;99.90;;;;;;2570626;23;20446;-67
2021/04/07 02:26:35;;;;;;;17.40;9.75;;;3.70;99.90;;;;;;2570127;23;20322;-67
2021/04/07 02:27:36;;;;;;;15.63;9.82;;;3.70;99.90;;;;;;2570413;23;20028;-67
2021/04/07 02:28:37;;;;;;;17.73;11.43;;;3.70;99.90;;;;;;2570357;23;20090;-67
2021/04/07 02:29:38;;;;;;;17.58;11.80;;;3.70;99.90;;;;;;2570415;23;20001;-67
2021/04/07 02:30:39;;;;;;;18.70;11.30;;;3.70;99.90;;;;;;2570125;23;20425;-67
2021/04/07 02:31:39;;;;;;;18.80;12.60;;;3.70;99.90;;;;;;2570422;23;20134;-67
2021/04/07 02:32:40;;;;;;;19.58;12.82;;;3.70;99.90;;;;;;2569242;23;20003;-67
2021/04/07 02:33:40;;;;;;;19.77;14.02;;;3.70;99.90;;;;;;2570587;23;19992;-67
2021/04/07 02:34:42;;;;;;;21.05;13.52;;;3.70;99.90;;;;;;2569403;23;20035;-67
2021/04/07 02:35:43;;;;;;;20.40;12.60;;;3.80;99.90;;;;;;2569731;23;20360;-67
2021/04/07 02:36:44;;;;;;;21.00;13.70;;;3.70;99.90;;;;;;2569975;23;20005;-67
2021/04/07 02:37:44;;;;;;;24.02;13.73;;;3.80;99.90;;;;;;2570657;23;20000;-67
2021/04/07 02:38:45;;;;;;;19.27;12.82;;;3.70;99.90;;;;;;2569818;23;20039;-67
2021/04/07 02:39:46;;;;;;;26.30;13.13;;;3.80;99.90;;;;;;2570307;23;20054;-67
2021/04/07 02:40:47;;;;;;;21.17;13.77;;;3.70;99.90;;;;;;2570403;23;20005;-67
2021/04/07 02:41:47;;;;;;;19.60;13.00;;;3.70;99.90;;;;;;2569580;23;20071;-67
2021/04/07 02:42:48;;;;;;;22.95;14.85;;;3.70;99.90;;;;;;2568509;23;19997;-67
2021/04/07 02:43:48;;;;;;;21.02;14.25;;;3.80;99.90;;;;;;2570449;23;19997;-67
2021/04/07 02:44:49;;;;;;;24.08;13.43;;;3.80;99.90;;;;;;2570455;23;20310;-67
2021/04/07 02:45:50;;;;;;;24.17;13.40;;;3.80;99.90;;;;;;2570526;23;20067;-67
2021/04/07 02:46:51;;;;;;;19.42;14.65;;;3.80;99.90;;;;;;2570174;23;20417;-67
2021/04/07 02:47:51;;;;;;;21.42;13.85;;;3.80;99.90;;;;;;2570448;23;20297;-67
2021/04/07 02:48:52;;;;;;;23.10;14.52;;;3.80;99.90;;;;;;2570376;23;20313;-67
2021/04/07 02:49:53;;;;;;;18.17;13.82;;;3.80;99.90;;;;;;2570378;23;20024;-67
2021/04/07 02:50:53;;;;;;;22.08;14.50;;;3.80;99.90;;;;;;2570306;23;19996;-67
2021/04/07 02:51:55;;;;;;;16.17;13.27;;;3.80;99.90;;;;;;2570192;23;20001;-67
2021/04/07 02:52:55;;;;;;;21.23;13.93;;;3.80;99.90;;;;;;2569948;23;20321;-67
2021/04/07 02:53:56;;;;;;;18.70;13.73;;;3.80;99.90;;;;;;2570204;23;19997;-67
2021/04/07 02:54:56;;;;;;;19.75;13.07;;;3.80;99.90;;;;;;2570340;23;20046;-67
2021/04/07 02:55:57;;;;;;;20.92;13.55;;;3.80;99.90;;;;;;2570416;23;20003;-67
2021/04/07 02:56:57;;;;;;;16.73;12.65;;;3.80;99.90;;;;;;2570303;23;19999;-67
2021/04/07 02:57:58;;;;;;;19.80;13.27;;;3.80;99.90;;;;;;2570025;23;20024;-67
2021/04/07 02:58:59;;;;;;;18.77;14.38;;;3.80;99.90;;;;;;2570470;23;20011;-67
2021/04/07 03:00:00;;;;;;;20.27;14.32;;;3.80;99.90;;;;;;2570304;23;20001;-67
2021/04/07 03:01:00;;;;;;;19.33;13.75;;;3.80;99.90;;;;;;2570411;23;20012;-67
2021/04/07 03:02:02;;;;;;;20.25;14.80;;;3.80;99.90;;;;;;2569039;23;20146;-67
2021/04/07 03:03:03;;;;;;;19.05;14.05;;;3.80;99.90;;;;;;2568785;23;20084;-67
2021/04/07 03:04:04;;;;;;;27.45;14.48;;;3.80;99.90;;;;;;2568971;23;20012;-67
2021/04/07 03:05:06;;;;;;;17.75;13.38;;;3.80;99.90;;;;;;2569343;23;20617;-67
2021/04/07 03:06:06;;;;;;;16.85;14.10;;;3.80;99.90;;;;;;2569327;23;20011;-67
2021/04/07 03:07:07;;;;;;;20.00;13.68;;;3.80;99.90;;;;;;2568874;23;20005;-67
2021/04/07 03:08:07;;;;;;;17.58;13.40;;;3.80;99.90;;;;;;2569328;23;20009;-67
2021/04/07 03:09:08;;;;;;;19.50;12.52;;;3.80;99.90;;;;;;2569013;23;20016;-67
2021/04/07 03:10:11;;;;;;;17.88;14.15;;;3.80;99.90;;;;;;2569300;23;20487;-67
2021/04/07 03:11:11;;;;;;;22.45;14.60;;;3.80;99.90;;;;;;2569355;23;20000;-67
2021/04/07 03:12:12;;;;;;;19.40;14.38;;;3.80;99.90;;;;;;2568580;23;20015;-68
2021/04/07 03:13:12;;;;;;;19.17;13.48;;;3.70;99.90;;;;;;2569139;23;20080;-67
2021/04/07 03:14:13;;;;;;;17.98;13.90;;;3.80;99.90;;;;;;2568997;23;20032;-67
2021/04/07 03:15:14;;;;;;;17.73;15.10;;;3.80;99.90;;;;;;2569496;23;20020;-68
2021/04/07 03:16:14;;;;;;;22.60;14.48;;;3.80;99.90;;;;;;2569111;23;20000;-67
2021/04/07 03:17:15;;;;;;;20.33;15.95;;;3.80;99.90;;;;;;2568005;23;20448;-67
2021/04/07 03:18:15;;;;;;;17.73;15.82;;;3.80;99.90;;;;;;2568886;23;20075;-67
2021/04/07 03:19:16;;;;;;;20.25;15.32;;;3.80;99.90;;;;;;2569179;23;20155;-68
2021/04/07 03:20:17;;;;;;;21.98;16.15;;;3.80;99.90;;;;;;2556271;23;20032;-67
2021/04/07 03:21:17;;;;;;;19.45;15.90;;;3.80;99.90;;;;;;2567746;23;20012;-67
2021/04/07 03:22:18;;;;;;;22.65;16.17;;;3.80;99.90;;;;;;2569446;23;20302;-67
2021/04/07 03:23:18;;;;;;;20.38;14.82;;;3.80;99.90;;;;;;2569382;23;20016;-68
2021/04/07 03:24:19;;;;;;;23.35;16.45;;;3.80;99.90;;;;;;2569372;23;20004;-68
2021/04/07 03:25:19;;;;;;;21.63;16.10;;;3.80;99.90;;;;;;2569359;23;20008;-67
2021/04/07 03:26:20;;;;;;;21.27;16.40;;;3.80;99.90;;;;;;2569392;23;20015;-67
2021/04/07 03:27:21;;;;;;;20.70;15.73;;;3.90;99.90;;;;;;2569772;23;20012;-67
2021/04/07 03:28:22;;;;;;;21.17;15.77;;;3.90;99.90;;;;;;2569672;23;20000;-67
2021/04/07 03:29:22;;;;;;;22.85;15.82;;;3.80;99.90;;;;;;2569485;23;20000;-67
2021/04/07 03:30:23;;;;;;;19.33;14.55;;;3.80;99.90;;;;;;2569225;23;20032;-68
2021/04/07 03:31:24;;;;;;;20.58;16.33;;;3.80;99.90;;;;;;2569021;23;20062;-67
2021/04/07 03:32:24;;;;;;;21.38;15.95;;;3.80;99.90;;;;;;2569157;23;20427;-67
2021/04/07 03:33:31;;;;;;;18.40;15.52;;;3.80;99.90;;;;;;2569640;23;20448;-67
2021/04/07 03:34:31;;;;;;;22.80;15.50;;;3.80;99.90;;;;;;2569785;23;20321;-67
2021/04/07 03:35:32;;;;;;;19.42;15.73;;;3.80;99.90;;;;;;2569418;23;20066;-67
2021/04/07 03:36:32;;;;;;;19.45;15.25;;;3.80;99.90;;;;;;2569050;23;20001;-67
2021/04/07 03:37:33;;;;;;;23.40;16.40;;;3.80;99.90;;;;;;2569563;23;20000;-67
2021/04/07 03:38:34;;;;;;;20.25;15.85;;;3.80;99.90;;;;;;2569107;23;20001;-67
2021/04/07 03:39:34;;;;;;;24.67;16.00;;;3.80;99.90;;;;;;2569376;23;20012;-68
2021/04/07 03:40:35;;;;;;;17.58;15.55;;;3.80;99.90;;;;;;2569545;23;20016;-67
2021/04/07 03:41:36;;;;;;;21.42;16.35;;;3.80;99.90;;;;;;2569105;23;20095;-67
2021/04/07 03:42:36;;;;;;;22.42;17.02;;;3.80;99.90;;;;;;2569147;23;20637;-67
2021/04/07 03:43:37;;;;;;;23.67;16.83;;;3.80;99.90;;;;;;2569366;23;20008;-67
2021/04/07 03:44:38;;;;;;;24.15;16.63;;;3.80;99.90;;;;;;2569606;23;20008;-67
2021/04/07 03:45:46;;;;;;;20.50;16.40;;;3.80;99.90;;;;;;2569183;23;20016;-67
2021/04/07 03:46:46;;;;;;;21.75;16.45;;;3.80;99.90;;;;;;2569373;23;20005;-67
2021/04/07 03:47:47;;;;;;;19.67;17.17;;;3.80;99.90;;;;;;2569096;23;20092;-67
2021/04/07 03:48:47;;;;;;;21.45;17.00;;;3.80;99.90;;;;;;2569661;23;20001;-67
2021/04/07 03:49:48;;;;;;;21.02;16.83;;;3.80;99.90;;;;;;2568147;23;20001;-67
2021/04/07 03:50:49;;;;;;;25.25;18.13;;;3.80;99.90;;;;;;2568646;23;20083;-67
2021/04/07 03:51:50;;;;;;;22.45;18.38;;;3.80;99.90;;;;;;2568451;23;20008;-67
2021/04/07 03:52:50;;;;;;;21.50;17.25;;;3.80;99.90;;;;;;2568167;23;20035;-67
2021/04/07 03:53:51;;;;;;;21.90;16.88;;;3.80;99.90;;;;;;2569134;23;20004;-67
2021/04/07 03:54:56;;;;;;;24.05;19.00;;;3.80;99.90;;;;;;2568700;23;20000;-67
2021/04/07 03:55:57;;;;;;;22.38;18.98;;;3.80;99.90;;;;;;2568437;23;20020;-67
2021/04/07 03:56:58;;;;;;;23.67;19.00;;;3.80;99.90;;;;;;2569452;23;20055;-67
2021/04/07 03:57:59;;;;;;;24.38;17.20;;;3.80;99.90;;;;;;2569151;23;20008;-67
2021/04/07 03:58:59;;;;;;;22.60;18.85;;;3.80;99.90;;;;;;2568458;23;20115;-67
2021/04/07 04:00:00;;;;;;;26.30;19.50;;;3.80;99.90;;;;;;2568500;23;20402;-67
2021/04/07 04:01:00;;;;;;;23.23;18.80;;;3.80;99.90;;;;;;2569178;23;20287;-67
2021/04/07 04:02:01;;;;;;;22.92;20.17;;;3.80;99.90;;;;;;2569140;23;20036;-67
2021/04/07 04:03:02;;;;;;;23.98;19.42;;;3.80;99.90;;;;;;2569074;23;20076;-67
2021/04/07 04:04:02;;;;;;;27.10;19.52;;;3.80;99.90;;;;;;2569378;23;20012;-67
2021/04/07 04:05:04;;;;;;;24.90;19.83;;;3.80;99.90;;;;;;2569776;23;20388;-67
2021/04/07 04:06:05;;;;;;;22.88;18.25;;;3.80;99.90;;;;;;2569096;23;20027;-67
2021/04/07 04:07:05;;;;;;;21.63;19.33;;;3.80;99.90;;;;;;2569237;23;20009;-68
2021/04/07 04:08:07;;;;;;;20.05;17.98;;;3.80;99.90;;;;;;2569545;23;20036;-67
2021/04/07 04:09:07;;;;;;;23.90;20.13;;;3.90;99.90;;;;;;2567646;23;20095;-67
2021/04/07 04:10:08;;;;;;;23.92;19.60;;;3.80;99.90;;;;;;2581181;22;20024;-67
2021/04/07 04:11:09;;;;;;;28.33;19.17;;;3.80;99.90;;;;;;2593182;22;20384;-67
2021/04/07 04:12:10;;;;;;;22.02;19.20;;;3.90;99.90;;;;;;2568973;23;20082;-67
2021/04/07 04:13:10;;;;;;;21.15;17.77;;;3.80;99.90;;;;;;2568550;23;20001;-67
2021/04/07 04:14:11;;;;;;;21.98;18.90;;;3.80;99.90;;;;;;2568161;23;20012;-67
2021/04/07 04:15:13;;;;;;;23.10;18.08;;;3.80;99.90;;;;;;2568592;23;20000;-67
2021/04/07 04:16:13;;;;;;;22.48;18.23;;;3.80;99.90;;;;;;2569149;23;20417;-68
2021/04/07 04:17:14;;;;;;;20.05;17.88;;;3.80;99.90;;;;;;2568816;23;20357;-67
2021/04/07 04:18:14;;;;;;;20.25;18.17;;;3.80;99.90;;;;;;2569555;23;20005;-67
2021/04/07 04:19:15;;;;;;;21.05;18.33;;;3.80;99.90;;;;;;2569064;23;20000;-67
2021/04/07 04:20:16;;;;;;;23.10;18.85;;;3.80;99.90;;;;;;2568945;23;20011;-68
2021/04/07 04:21:17;;;;;;;21.75;18.00;;;3.80;99.90;;;;;;2569208;23;20050;-67
2021/04/07 04:22:18;;;;;;;21.77;18.65;;;3.80;99.90;;;;;;2568399;23;20123;-67
2021/04/07 04:23:18;;;;;;;22.30;19.95;;;3.80;99.90;;;;;;2569804;23;20340;-67
2021/04/07 04:24:19;;;;;;;19.92;17.88;;;3.80;99.90;;;;;;2569077;23;20080;-67
2021/04/07 04:25:21;;;;;;;23.10;20.60;;;3.80;99.90;;;;;;2568847;23;20088;-67
2021/04/07 04:26:22;;;;;;;21.42;19.33;;;3.80;99.90;;;;;;2568774;23;20098;-67
2021/04/07 04:27:22;;;;;;;21.58;17.83;;;3.80;99.90;;;;;;2568159;23;20087;-67
2021/04/07 04:28:23;;;;;;;19.95;17.55;;;3.80;99.90;;;;;;2568358;23;20005;-67
2021/04/07 04:29:24;;;;;;;19.42;17.42;;;3.80;99.90;;;;;;2568724;23;20418;-67
2021/04/07 04:30:29;;;;;;;17.45;15.77;;;3.70;99.90;;;;;;2569436;23;20446;-68
2021/04/07 04:31:30;;;;;;;18.77;15.52;;;3.70;99.90;;;;;;2568999;23;20090;-67
2021/04/07 04:32:31;;;;;;;17.63;15.77;;;3.70;99.90;;;;;;2567736;23;20007;-67
2021/04/07 04:33:32;;;;;;;17.80;16.00;;;3.70;99.90;;;;;;2568469;23;20079;-67
2021/04/07 04:34:33;;;;;;;17.75;15.40;;;3.80;99.90;;;;;;2568862;23;19997;-67
2021/04/07 04:35:33;;;;;;;15.90;14.40;;;3.70;99.90;;;;;;2568773;23;20333;-67
2021/04/07 04:36:34;;;;;;;18.05;14.98;;;3.70;99.90;;;;;;2569078;23;20091;-67
2021/04/07 04:37:35;;;;;;;17.05;15.35;;;3.70;99.90;;;;;;2568439;23;20008;-67
2021/04/07 04:38:36;;;;;;;17.02;14.88;;;3.70;99.90;;;;;;2569905;23;20001;-67
2021/04/07 04:39:36;;;;;;;20.30;15.23;;;3.70;99.90;;;;;;2569034;23;20008;-67
2021/04/07 04:40:37;;;;;;;16.50;14.80;;;3.80;99.90;;;;;;2569124;23;20414;-68
2021/04/07 04:41:37;;;;;;;17.45;15.70;;;3.70;99.90;;;;;;2568817;23;20086;-67
2021/04/07 04:42:38;;;;;;;19.50;16.02;;;3.80;99.90;;;;;;2568299;23;20080;-67
2021/04/07 04:43:39;;;;;;;17.85;16.05;;;3.70;99.90;;;;;;2568767;23;20023;-67
2021/04/07 04:44:39;;;;;;;22.10;17.00;;;3.70;99.90;;;;;;2568771;23;20012;-68
2021/04/07 04:45:40;;;;;;;21.98;18.67;;;3.70;99.90;;;;;;2568329;23;20031;-67
2021/04/07 04:46:40;;;;;;;20.45;17.35;;;3.70;99.90;;;;;;2568993;23;20080;-67
2021/04/07 04:47:41;;;;;;;19.20;17.20;;;3.70;99.90;;;;;;2568847;23;20444;-67
2021/04/07 04:48:42;;;;;;;21.58;18.60;;;3.70;99.90;;;;;;2569235;23;20004;-67
2021/04/07 04:49:42;;;;;;;22.80;17.70;;;3.70;99.90;;;;;;2568955;23;20020;-67
2021/04/07 04:50:43;;;;;;;21.20;17.73;;;3.80;99.90;;;;;;2569188;23;20000;-67
2021/04/07 04:51:43;;;;;;;24.02;20.88;;;3.80;99.90;;;;;;2568319;23;20000;-68
2021/04/07 04:52:44;;;;;;;24.17;19.95;;;3.80;99.90;;;;;;2567443;23;20008;-67
2021/04/07 04:53:44;;;;;;;24.52;18.73;;;3.80;99.90;;;;;;2568377;23;20008;-67
2021/04/07 04:54:45;;;;;;;21.95;19.55;;;3.80;99.90;;;;;;2568757;23;20072;-67
2021/04/07 04:55:46;;;;;;;24.40;19.73;;;3.80;99.90;;;;;;2568774;23;20042;-67
2021/04/07 04:56:46;;;;;;;23.48;19.52;;;3.80;99.90;;;;;;2568909;23;19997;-67
2021/04/07 04:57:47;;;;;;;22.80;19.80;;;3.80;99.90;;;;;;2569149;23;20000;-68
2021/04/07 04:58:47;;;;;;;24.70;20.65;;;3.80;99.90;;;;;;2569092;23;20051;-67
2021/04/07 04:59:48;;;;;;;26.85;20.48;;;3.80;99.90;;;;;;2569001;23;19996;-67
2021/04/07 05:00:48;;;;;;;25.08;21.27;;;3.80;99.90;;;;;;2568822;23;20072;-67
2021/04/07 05:01:49;;;;;;;25.20;20.92;;;3.80;99.90;;;;;;2569277;23;20480;-67
2021/04/07 05:02:50;;;;;;;22.20;19.80;;;3.80;99.90;;;;;;2568759;23;19997;-67
2021/04/07 05:03:50;;;;;;;27.20;20.77;;;3.80;99.90;;;;;;2569315;23;20000;-67
2021/04/07 05:04:51;;;;;;;27.65;20.73;;;3.80;99.90;;;;;;2569107;23;20485;-67
2021/04/07 05:05:51;;;;;;;25.05;20.13;;;3.80;99.90;;;;;;2568746;23;20020;-67
2021/04/07 05:06:52;;;;;;;23.85;21.33;;;3.80;99.90;;;;;;2569168;23;20368;-67
2021/04/07 05:07:52;;;;;;;23.83;20.95;;;3.80;99.90;;;;;;2569099;23;19997;-67
2021/04/07 05:08:53;;;;;;;23.98;21.45;;;3.80;99.90;;;;;;2568554;23;20485;-67
2021/04/07 05:09:53;;;;;;;25.17;19.40;;;3.80;99.90;;;;;;2569144;23;20024;-67
2021/04/07 05:10:54;;;;;;;23.20;19.98;;;3.80;99.90;;;;;;2569135;23;20005;-68
2021/04/07 05:11:54;;;;;;;21.58;19.35;;;3.80;99.90;;;;;;2569156;23;19996;-69
2021/04/07 05:12:55;;;;;;;20.92;18.20;;;3.80;99.90;;;;;;2568514;23;20371;-68
2021/04/07 05:13:55;;;;;;;21.38;19.08;;;3.80;99.90;;;;;;2568951;23;20016;-67
2021/04/07 05:14:57;;;;;;;25.70;19.85;;;3.80;99.90;;;;;;2569503;23;20020;-68
2021/04/07 05:15:57;;;;;;;21.90;19.08;;;3.80;99.90;;;;;;2569008;23;19997;-67
2021/04/07 05:16:58;;;;;;;19.80;17.70;;;3.80;99.90;;;;;;2568995;23;20011;-67